Time;durP1;ratioP1;P1;durP2;ratioP2;P2;SDS_P1;SDS_P2;PMS_P1;PMS_P2;Temp;Humidity;BMP_temperature;BMP_pressure;BME280_temperature;BME280_humidity;BME280_pressure;Samples;Min_cycle;Max_cycle;Signal;HPM_P1;HPM_P2
2023/08/13 00:00:00;;;;;;;1.40;0.77;;;;;;;19.45;93.05;100900.16;4996217;28;20069;-66
2023/08/13 00:02:25;;;;;;;1.08;0.70;;;;;;;19.48;93.68;100904.03;5026617;28;20087;-66
2023/08/13 00:04:51;;;;;;;1.08;0.70;;;;;;;19.45;93.29;100900.16;5031156;28;20067;-67
2023/08/13 00:07:19;;;;;;;1.13;0.63;;;;;;;19.47;93.04;100903.25;5001325;28;20017;-66
2023/08/13 00:09:44;;;;;;;0.93;0.60;;;;;;;19.46;93.31;100904.44;4996262;28;20030;-66
2023/08/13 00:12:10;;;;;;;2.35;0.70;;;;;;;19.48;93.25;100913.03;5011490;28;20606;-66
2023/08/13 00:14:35;;;;;;;2.15;0.77;;;;;;;19.49;93.06;100908.34;5013817;28;20034;-67
2023/08/13 00:17:01;;;;;;;0.50;0.50;;;;;;;19.47;93.41;100910.69;5016224;28;20450;-66
2023/08/13 00:19:27;;;;;;;0.50;0.50;;;;;;;19.50;93.70;100916.13;5009612;28;20043;-66
2023/08/13 00:21:52;;;;;;;0.65;0.50;;;;;;;19.54;93.26;100918.81;5013727;28;20033;-66
2023/08/13 00:24:17;;;;;;;5.18;1.50;;;;;;;19.49;93.60;100920.00;5017750;28;20029;-66
2023/08/13 00:26:43;;;;;;;0.55;0.50;;;;;;;19.43;93.77;100912.69;5015711;28;20037;-66
2023/08/13 00:29:08;;;;;;;1.77;0.73;;;;;;;19.46;94.04;100914.59;5016975;28;20034;-66
2023/08/13 00:31:34;;;;;;;1.63;0.95;;;;;;;19.44;93.56;100919.69;5010862;28;20075;-66
2023/08/13 00:33:59;;;;;;;2.42;0.70;;;;;;;19.40;93.97;100910.75;4995565;28;20044;-65
2023/08/13 00:36:25;;;;;;;3.45;0.60;;;;;;;19.38;94.15;100913.91;5029012;28;20037;-67
2023/08/13 00:38:51;;;;;;;1.02;0.80;;;;;;;19.36;94.33;100910.03;5008007;28;20076;-66
2023/08/13 00:41:17;;;;;;;0.88;0.70;;;;;;;19.39;94.32;100906.50;5021459;28;20037;-66
2023/08/13 00:43:43;;;;;;;0.52;0.38;;;;;;;19.33;94.28;100917.09;5019782;28;20029;-66
2023/08/13 00:46:10;;;;;;;4.32;0.70;;;;;;;19.35;94.83;100920.19;5020582;28;20437;-66
2023/08/13 00:48:38;;;;;;;1.80;0.85;;;;;;;19.40;94.51;100917.00;5001754;28;20112;-66
2023/08/13 00:51:04;;;;;;;1.02;0.65;;;;;;;19.42;94.76;100916.59;5011198;28;20030;-66
2023/08/13 00:53:30;;;;;;;2.90;0.63;;;;;;;19.39;95.02;100923.66;4999530;28;20095;-66
2023/08/13 00:55:58;;;;;;;0.65;0.50;;;;;;;19.34;94.71;100926.06;4996155;28;20096;-66
2023/08/13 00:58:24;;;;;;;2.70;0.70;;;;;;;19.26;95.19;100925.31;5009792;28;20033;-65
2023/08/13 01:00:49;;;;;;;2.30;1.40;;;;;;;19.24;95.49;100921.47;5013562;28;20044;-65
2023/08/13 01:03:15;;;;;;;1.10;0.50;;;;;;;19.23;95.86;100926.16;5012226;28;20482;-67
2023/08/13 01:05:49;;;;;;;3.30;0.68;;;;;;;19.24;96.04;100926.94;5015587;28;20049;-66
2023/08/13 01:08:49;;;;;;;0.60;0.60;;;;;;;19.23;95.79;100926.16;5008575;28;20033;-67
2023/08/13 01:11:43;;;;;;;1.00;0.52;;;;;;;19.21;95.75;100923.06;5029607;28;20405;-66
2023/08/13 01:14:32;;;;;;;4.22;0.70;;;;;;;19.21;95.58;100933.97;5019525;28;20490;-66
2023/08/13 01:16:59;;;;;;;1.75;0.25;;;;;;;19.21;95.74;100931.25;5024179;28;20033;-66
2023/08/13 01:19:25;;;;;;;0.70;0.70;;;;;;;19.13;95.72;100932.50;5021211;28;20417;-65
2023/08/13 01:21:51;;;;;;;1.67;0.60;;;;;;;19.01;95.60;100930.25;5021675;28;20037;-65
2023/08/13 01:24:16;;;;;;;0.47;0.43;;;;;;;19.04;95.74;100932.19;5027926;28;20044;-65
2023/08/13 01:27:06;;;;;;;1.48;0.93;;;;;;;19.07;95.60;100934.09;5004967;28;20017;-67
2023/08/13 01:29:46;;;;;;;2.15;0.50;;;;;;;19.03;95.27;100938.81;5005356;28;20044;-65
2023/08/13 01:32:21;;;;;;;1.52;0.60;;;;;;;19.03;95.69;100938.81;5014579;28;20046;-66
2023/08/13 01:34:49;;;;;;;0.95;0.40;;;;;;;18.99;95.17;100942.78;5009035;28;20068;-66
2023/08/13 01:37:15;;;;;;;3.45;0.88;;;;;;;19.01;95.24;100929.50;5013347;28;20076;-65
2023/08/13 01:39:41;;;;;;;4.43;0.93;;;;;;;19.05;94.69;100944.66;5006538;28;20029;-65
2023/08/13 01:42:09;;;;;;;2.63;0.70;;;;;;;19.06;94.64;100943.50;5014853;28;20560;-66
2023/08/13 01:44:35;;;;;;;4.60;0.68;;;;;;;19.04;94.84;100945.06;5016848;28;20137;-66
2023/08/13 01:47:01;;;;;;;1.00;0.63;;;;;;;19.02;94.64;100937.28;5017068;28;21175;-66
2023/08/13 01:49:26;;;;;;;1.08;0.60;;;;;;;19.07;94.36;100942.31;5007855;28;20037;-67
2023/08/13 01:51:51;;;;;;;2.08;0.88;;;;;;;18.98;94.99;100933.81;4997676;28;20413;-65
2023/08/13 01:54:17;;;;;;;2.15;0.73;;;;;;;18.95;95.01;100931.88;4992398;28;20029;-65
2023/08/13 01:56:42;;;;;;;1.60;0.70;;;;;;;18.96;95.27;100933.44;5020223;28;20108;-67
2023/08/13 01:59:08;;;;;;;0.65;0.60;;;;;;;18.96;95.35;100943.59;5001048;28;20025;-66
2023/08/13 02:01:33;;;;;;;0.85;0.57;;;;;;;19.03;94.81;100941.56;5000797;28;20083;-66
2023/08/13 02:03:59;;;;;;;1.05;0.60;;;;;;;19.05;94.49;100941.19;5025131;28;20034;-66
2023/08/13 02:06:24;;;;;;;1.08;0.50;;;;;;;19.01;94.97;100945.91;5012222;28;20029;-65
2023/08/13 02:08:50;;;;;;;6.32;0.95;;;;;;;18.98;94.92;100938.50;5025592;28;20095;-64
2023/08/13 02:11:15;;;;;;;2.20;0.65;;;;;;;18.92;95.22;100943.63;5006789;28;20026;-65
2023/08/13 02:13:41;;;;;;;1.65;0.85;;;;;;;18.94;95.17;100944.00;5010811;28;20101;-65
2023/08/13 02:16:06;;;;;;;1.60;0.70;;;;;;;18.89;95.60;100944.44;5006948;28;20022;-65
2023/08/13 02:18:32;;;;;;;1.45;0.70;;;;;;;18.88;95.40;100943.66;5017649;28;20107;-65
2023/08/13 02:20:57;;;;;;;1.30;0.68;;;;;;;18.83;95.40;100940.59;5004985;28;20029;-65
2023/08/13 02:23:23;;;;;;;3.05;0.52;;;;;;;18.84;95.23;100947.59;5008880;28;20033;-65
2023/08/13 02:25:49;;;;;;;0.55;0.52;;;;;;;18.81;95.27;100938.25;5016168;28;20018;-65
2023/08/13 02:28:14;;;;;;;0.73;0.57;;;;;;;18.74;95.15;100943.00;5011236;28;20026;-65
2023/08/13 02:30:40;;;;;;;1.00;0.77;;;;;;;18.75;95.26;100937.16;5024627;28;20076;-65
2023/08/13 02:33:05;;;;;;;1.42;0.65;;;;;;;18.80;94.74;100947.63;5016891;28;20502;-65
2023/08/13 02:35:32;;;;;;;0.50;0.50;;;;;;;18.81;94.67;100951.88;5025848;28;20037;-65
2023/08/13 02:37:58;;;;;;;3.65;0.70;;;;;;;18.75;94.48;100944.56;5023089;28;20030;-65
2023/08/13 02:40:23;;;;;;;0.77;0.50;;;;;;;18.72;94.64;100948.84;5001546;28;20033;-64
2023/08/13 02:42:49;;;;;;;0.93;0.68;;;;;;;18.68;95.14;100950.06;5020732;28;20065;-64
2023/08/13 02:45:14;;;;;;;3.38;0.70;;;;;;;18.69;94.97;100951.63;5021004;28;20508;-65
2023/08/13 02:47:40;;;;;;;1.05;0.60;;;;;;;18.72;95.39;100948.06;4996550;28;20030;-65
2023/08/13 02:50:06;;;;;;;3.03;0.90;;;;;;;18.80;95.03;100952.31;5025342;28;20030;-65
2023/08/13 02:52:32;;;;;;;0.40;0.40;;;;;;;18.82;95.28;100950.72;5014624;28;20033;-65
2023/08/13 02:54:57;;;;;;;2.08;0.63;;;;;;;18.88;95.13;100953.78;5022567;28;20056;-64
2023/08/13 02:57:22;;;;;;;2.70;1.15;;;;;;;18.78;95.92;100957.38;5016497;28;20490;-65
2023/08/13 02:59:48;;;;;;;2.33;0.73;;;;;;;18.79;96.73;100956.22;5011820;28;20074;-64
2023/08/13 03:02:16;;;;;;;0.85;0.68;;;;;;;18.74;96.94;100957.41;5011322;28;20180;-65
2023/08/13 03:04:42;;;;;;;0.60;0.57;;;;;;;18.82;96.80;100958.13;5012004;28;20170;-64
2023/08/13 03:07:07;;;;;;;4.95;0.80;;;;;;;18.84;96.89;100951.09;5031448;28;20105;-64
2023/08/13 03:09:33;;;;;;;1.67;0.88;;;;;;;18.89;96.22;100958.09;5027752;28;20385;-65
2023/08/13 03:11:58;;;;;;;0.63;0.60;;;;;;;18.87;95.74;100953.00;5017132;28;20564;-64
2023/08/13 03:14:24;;;;;;;1.15;0.60;;;;;;;18.82;95.95;100955.41;5006789;28;20060;-64
2023/08/13 03:16:50;;;;;;;0.85;0.80;;;;;;;18.73;96.01;100952.38;5028383;28;20052;-65
2023/08/13 03:19:15;;;;;;;2.67;0.70;;;;;;;18.73;95.94;100957.81;5030377;28;20056;-65
2023/08/13 03:21:43;;;;;;;3.22;0.73;;;;;;;18.71;95.82;100954.72;5020845;28;20076;-65
2023/08/13 03:24:09;;;;;;;3.10;0.40;;;;;;;18.65;95.66;100956.31;5021034;28;20037;-65
2023/08/13 03:26:34;;;;;;;3.03;1.00;;;;;;;18.62;95.99;100951.69;4999917;28;20159;-65
2023/08/13 03:28:59;;;;;;;4.00;1.10;;;;;;;18.59;95.95;100955.97;5023432;28;20026;-65
2023/08/13 03:31:25;;;;;;;5.20;0.60;;;;;;;18.59;96.10;100952.47;5009469;28;20453;-66
2023/08/13 03:33:57;;;;;;;0.95;0.55;;;;;;;18.64;95.76;100966.47;5021843;28;20391;-65
2023/08/13 03:36:23;;;;;;;0.98;0.50;;;;;;;18.60;95.89;100952.06;5017273;28;20034;-65
2023/08/13 03:38:48;;;;;;;2.30;1.30;;;;;;;18.63;95.68;100961.41;5001152;28;20032;-65
2023/08/13 03:41:14;;;;;;;1.58;1.02;;;;;;;18.56;95.83;100967.69;5025640;28;20033;-65
2023/08/13 03:43:40;;;;;;;1.75;0.60;;;;;;;18.55;96.07;100960.69;5034511;22;20041;-66
2023/08/13 03:46:05;;;;;;;0.65;0.65;;;;;;;18.54;96.01;100953.66;5024129;28;20102;-66
2023/08/13 03:48:31;;;;;;;0.68;0.52;;;;;;;18.56;95.75;100958.75;5017424;28;20421;-66
2023/08/13 03:50:56;;;;;;;4.00;0.57;;;;;;;18.55;95.63;100957.97;5030479;28;20036;-67
2023/08/13 03:53:24;;;;;;;1.67;0.65;;;;;;;18.60;96.19;100956.78;5045669;28;20569;-67
2023/08/13 03:55:51;;;;;;;1.05;0.57;;;;;;;18.64;95.90;100960.25;5027935;28;20087;-67
2023/08/13 03:58:17;;;;;;;4.97;0.93;;;;;;;18.67;95.94;100964.88;5029603;28;20033;-66
2023/08/13 04:00:42;;;;;;;1.70;0.70;;;;;;;18.64;96.42;100954.78;5033260;28;20081;-66
2023/08/13 04:03:09;;;;;;;1.33;0.90;;;;;;;18.66;96.04;100963.34;5024015;28;20060;-66
2023/08/13 04:05:35;;;;;;;1.13;0.50;;;;;;;18.66;96.40;100960.63;5031099;28;20036;-66
2023/08/13 04:08:02;;;;;;;0.80;0.40;;;;;;;18.66;96.81;100964.09;5030948;28;20029;-67
2023/08/13 04:10:28;;;;;;;1.55;0.82;;;;;;;18.69;97.03;100959.81;5032751;28;20032;-67
2023/08/13 04:12:55;;;;;;;0.85;0.50;;;;;;;18.81;96.32;100971.00;5049458;28;20033;-66
2023/08/13 04:15:22;;;;;;;4.00;0.50;;;;;;;18.73;97.10;100966.78;5033518;28;20040;-67
2023/08/13 04:17:48;;;;;;;1.52;0.60;;;;;;;18.76;97.09;100962.47;5046430;28;20033;-67
2023/08/13 04:20:14;;;;;;;0.60;0.60;;;;;;;18.80;97.10;100963.22;5028825;28;20579;-66
2023/08/13 04:22:42;;;;;;;0.43;0.40;;;;;;;18.82;96.82;100963.59;5032045;28;20048;-66
2023/08/13 04:25:08;;;;;;;1.90;0.63;;;;;;;18.76;97.61;100967.94;5014225;28;20504;-67
2023/08/13 04:27:35;;;;;;;2.15;0.85;;;;;;;18.83;97.24;100967.88;5031718;28;20037;-66
2023/08/13 04:30:01;;;;;;;1.05;0.60;;;;;;;18.85;97.50;100971.00;5015808;28;20025;-66
2023/08/13 04:32:26;;;;;;;2.10;0.70;;;;;;;18.85;97.57;100962.81;5022449;28;20648;-67
2023/08/13 04:34:52;;;;;;;0.35;0.35;;;;;;;18.87;97.44;100969.38;5028808;28;20065;-66
2023/08/13 04:37:17;;;;;;;1.20;0.70;;;;;;;18.95;97.40;100966.63;5025904;28;20111;-66
2023/08/13 04:39:43;;;;;;;1.52;0.50;;;;;;;18.97;96.99;100967.75;5033125;28;20024;-67
2023/08/13 04:42:09;;;;;;;3.03;0.50;;;;;;;18.98;96.47;100966.59;5030708;28;20508;-66
2023/08/13 04:44:35;;;;;;;0.68;0.68;;;;;;;19.03;96.48;100970.84;5025330;28;20511;-67
2023/08/13 04:47:01;;;;;;;1.15;0.57;;;;;;;19.06;96.19;100965.34;5034270;28;20435;-67
2023/08/13 04:49:26;;;;;;;1.60;0.70;;;;;;;19.06;96.01;100973.53;5027108;28;20045;-66
2023/08/13 04:51:52;;;;;;;0.75;0.50;;;;;;;19.05;96.31;100969.22;5043282;28;20025;-66
2023/08/13 04:54:19;;;;;;;0.93;0.55;;;;;;;19.02;96.95;100972.78;5022616;28;20486;-67
2023/08/13 04:56:44;;;;;;;1.88;0.73;;;;;;;19.07;96.95;100966.88;5028103;28;20056;-66
2023/08/13 04:59:11;;;;;;;4.88;0.90;;;;;;;19.07;96.93;100968.81;5016195;28;20052;-66
2023/08/13 05:01:37;;;;;;;1.35;0.68;;;;;;;19.13;96.67;100968.00;5030323;28;20029;-66
2023/08/13 05:04:03;;;;;;;3.28;1.02;;;;;;;19.06;96.76;100965.34;5031741;28;20025;-67
2023/08/13 05:06:32;;;;;;;1.15;0.88;;;;;;;19.08;96.86;100962.19;5027409;28;20035;-66
2023/08/13 05:08:59;;;;;;;0.85;0.80;;;;;;;19.13;96.78;100967.22;5030700;28;20025;-66
2023/08/13 05:11:25;;;;;;;2.67;0.80;;;;;;;19.16;96.75;100959.00;5026214;28;20505;-66
2023/08/13 05:13:51;;;;;;;0.80;0.65;;;;;;;19.16;96.92;100964.47;5028716;28;20029;-67
2023/08/13 05:16:18;;;;;;;1.65;0.70;;;;;;;19.22;96.60;100968.28;5024132;28;20040;-67
2023/08/13 05:18:44;;;;;;;3.22;0.43;;;;;;;19.18;96.94;100970.28;5026126;28;20091;-67
2023/08/13 05:21:09;;;;;;;1.02;0.88;;;;;;;19.16;96.63;100963.69;5030736;28;20435;-67
2023/08/13 05:23:35;;;;;;;1.05;0.55;;;;;;;19.21;96.30;100969.47;5018228;28;20061;-67
2023/08/13 05:26:01;;;;;;;2.80;0.60;;;;;;;19.23;96.58;100975.31;5046204;28;20029;-67
2023/08/13 05:28:28;;;;;;;1.00;0.77;;;;;;;19.16;97.16;100969.94;5028171;28;20029;-67
2023/08/13 05:30:53;;;;;;;0.35;0.35;;;;;;;19.16;97.80;100972.66;5048573;28;20566;-66
2023/08/13 05:33:20;;;;;;;1.15;0.77;;;;;;;19.19;97.75;100976.53;5015811;28;20047;-67
2023/08/13 05:35:46;;;;;;;0.60;0.60;;;;;;;19.26;97.67;100977.22;5032687;28;20496;-67
2023/08/13 05:38:11;;;;;;;0.63;0.60;;;;;;;19.26;97.47;100974.50;5028897;28;20187;-69
2023/08/13 05:40:37;;;;;;;4.40;0.88;;;;;;;19.38;96.92;100976.75;5059622;28;20515;-67
2023/08/13 05:43:02;;;;;;;1.85;1.05;;;;;;;19.34;96.60;100975.22;5048736;28;20558;-65
2023/08/13 05:45:28;;;;;;;4.68;0.85;;;;;;;19.37;96.17;100974.44;5029702;28;20025;-69
2023/08/13 05:47:55;;;;;;;0.98;0.50;;;;;;;19.32;96.54;100963.88;5043575;28;20055;-66
2023/08/13 05:50:20;;;;;;;2.55;1.00;;;;;;;19.32;96.73;100967.44;5026260;28;20037;-66
2023/08/13 05:52:46;;;;;;;0.90;0.70;;;;;;;19.29;97.18;100961.97;5029574;28;20393;-67
2023/08/13 05:55:11;;;;;;;1.02;0.77;;;;;;;19.34;97.08;100967.03;5049010;28;20159;-67
2023/08/13 05:57:37;;;;;;;0.47;0.47;;;;;;;19.44;97.04;100966.13;5045007;28;20516;-66
2023/08/13 06:00:09;;;;;;;1.60;0.65;;;;;;;19.47;96.62;100962.63;5049360;28;20387;-66
2023/08/13 06:02:38;;;;;;;1.10;0.60;;;;;;;19.45;97.13;100960.25;5021918;28;20121;-66
2023/08/13 06:05:06;;;;;;;2.15;0.90;;;;;;;19.49;96.61;100963.72;5048721;28;20112;-67
2023/08/13 06:07:32;;;;;;;2.17;0.73;;;;;;;19.47;97.33;100968.84;5035517;28;20033;-67
2023/08/13 06:09:58;;;;;;;1.00;0.65;;;;;;;19.57;97.41;100972.63;5034195;28;20116;-67
2023/08/13 06:12:23;;;;;;;1.23;0.70;;;;;;;19.67;96.99;100969.78;5036045;28;20128;-66
2023/08/13 06:14:49;;;;;;;1.40;1.05;;;;;;;19.80;95.77;100964.56;5037079;28;20038;-66
2023/08/13 06:17:14;;;;;;;1.38;0.95;;;;;;;19.77;95.43;100976.31;5053481;28;20038;-65
2023/08/13 06:19:40;;;;;;;2.15;0.70;;;;;;;19.76;96.34;100974.78;5048790;28;20052;-66
2023/08/13 06:22:05;;;;;;;0.50;0.50;;;;;;;19.85;96.96;100971.53;5038802;28;20076;-66
2023/08/13 06:24:31;;;;;;;0.70;0.70;;;;;;;19.93;96.55;100975.72;5028216;28;20115;-67
2023/08/13 06:26:56;;;;;;;1.02;0.70;;;;;;;20.03;96.89;100983.03;5052703;28;21772;-67
2023/08/13 06:29:22;;;;;;;1.42;0.88;;;;;;;20.17;96.04;100989.06;5047050;28;20133;-66
2023/08/13 06:31:47;;;;;;;1.38;0.60;;;;;;;20.21;96.00;100984.34;5044903;28;20029;-68
2023/08/13 06:34:14;;;;;;;0.77;0.70;;;;;;;20.23;95.75;100994.88;5054265;28;20025;-67
2023/08/13 06:37:00;;;;;;;1.75;1.10;;;;;;;20.53;95.31;100992.13;5050207;28;20397;-68
2023/08/13 06:39:25;;;;;;;2.28;0.90;;;;;;;20.67;94.78;100989.91;4959341;28;20066;-66
2023/08/13 06:41:51;;;;;;;2.30;1.00;;;;;;;20.79;93.39;100996.78;4978475;28;20038;-66
2023/08/13 06:44:19;;;;;;;2.05;0.80;;;;;;;20.85;93.09;100994.38;4972296;28;20654;-66
2023/08/13 06:46:45;;;;;;;4.00;1.13;;;;;;;20.96;92.32;101001.22;4985626;28;20054;-66
2023/08/13 06:49:11;;;;;;;1.27;1.00;;;;;;;20.94;91.78;101005.56;4951599;28;20023;-66
2023/08/13 06:51:36;;;;;;;1.08;0.80;;;;;;;20.91;91.70;101004.41;4952904;28;20047;-66
2023/08/13 06:54:02;;;;;;;2.72;1.23;;;;;;;21.17;91.47;100998.13;4984537;28;20117;-67
2023/08/13 06:56:27;;;;;;;1.55;0.70;;;;;;;21.24;90.29;100995.25;4971986;28;20538;-66
2023/08/13 06:58:53;;;;;;;0.95;0.85;;;;;;;21.19;89.87;101000.47;4966532;28;20121;-66
2023/08/13 07:01:21;;;;;;;1.80;0.98;;;;;;;21.24;89.94;100994.47;4971664;28;20082;-66
2023/08/13 07:03:47;;;;;;;1.65;0.88;;;;;;;21.16;90.17;101004.00;4971503;28;20295;-66
2023/08/13 07:06:12;;;;;;;1.10;0.47;;;;;;;21.40;90.32;100991.84;4975882;28;20164;-66
2023/08/13 07:08:38;;;;;;;1.85;0.75;;;;;;;21.72;88.91;100994.00;4957323;28;20043;-66
2023/08/13 07:11:03;;;;;;;0.95;0.57;;;;;;;22.08;88.44;100992.09;4946713;28;20099;-68
2023/08/13 07:13:29;;;;;;;1.27;0.77;;;;;;;22.45;87.39;100988.91;4980236;28;20042;-67
2023/08/13 07:15:55;;;;;;;0.88;0.75;;;;;;;22.71;85.85;100985.16;4990331;28;20162;-65
2023/08/13 07:18:21;;;;;;;3.75;0.90;;;;;;;22.87;84.79;100990.66;5040795;28;20115;-69
2023/08/13 07:20:47;;;;;;;1.10;0.82;;;;;;;23.05;82.99;100998.47;5055318;28;20072;-68
2023/08/13 07:23:12;;;;;;;3.67;1.45;;;;;;;23.03;83.55;100987.13;5047940;28;20081;-67
2023/08/13 07:25:38;;;;;;;1.00;0.55;;;;;;;23.30;83.30;100993.88;5048241;28;20079;-66
2023/08/13 07:28:06;;;;;;;1.13;0.70;;;;;;;23.55;81.52;100986.94;5039512;28;20044;-68
2023/08/13 07:30:31;;;;;;;1.92;0.68;;;;;;;23.54;77.83;100991.66;5055638;28;20037;-66
2023/08/13 07:32:57;;;;;;;2.00;0.95;;;;;;;23.39;78.72;101000.72;5041325;28;20106;-67
2023/08/13 07:35:22;;;;;;;0.60;0.52;;;;;;;23.40;79.20;100997.56;5044047;28;20044;-66
2023/08/13 07:37:48;;;;;;;1.45;0.50;;;;;;;23.61;78.62;100997.00;5040883;28;20122;-66
2023/08/13 07:40:13;;;;;;;1.30;0.77;;;;;;;23.69;79.31;100998.31;5055576;28;20037;-67
2023/08/13 07:42:40;;;;;;;3.90;0.95;;;;;;;23.91;78.41;100998.47;5019511;28;20033;-67
2023/08/13 07:45:06;;;;;;;1.40;0.60;;;;;;;24.04;78.42;101004.84;5040892;28;20033;-67
2023/08/13 07:47:33;;;;;;;0.98;0.68;;;;;;;24.15;78.36;101019.06;5049448;28;20484;-67
2023/08/13 07:49:58;;;;;;;0.93;0.68;;;;;;;24.27;77.54;101014.78;5062421;28;20439;-67
2023/08/13 07:52:24;;;;;;;2.42;0.60;;;;;;;24.16;74.39;101013.09;5051403;28;20041;-66
2023/08/13 07:54:49;;;;;;;1.08;0.60;;;;;;;24.46;74.63;101014.56;5032721;28;20087;-67
2023/08/13 07:57:15;;;;;;;0.70;0.68;;;;;;;24.75;73.50;101018.00;5054146;28;20028;-67
2023/08/13 07:59:41;;;;;;;4.13;0.63;;;;;;;24.93;70.45;101020.19;5052042;28;20110;-67
2023/08/13 08:02:07;;;;;;;1.08;0.60;;;;;;;25.01;69.79;101015.94;5034764;28;20047;-67
2023/08/13 08:04:32;;;;;;;1.13;0.65;;;;;;;25.08;70.58;101012.19;5032784;28;20033;-68
2023/08/13 08:06:58;;;;;;;0.63;0.60;;;;;;;25.23;70.69;101014.03;5039547;28;20751;-67
2023/08/13 08:09:24;;;;;;;0.50;0.40;;;;;;;25.48;69.12;101022.25;5041726;28;20115;-67
2023/08/13 08:11:49;;;;;;;2.08;0.20;;;;;;;25.51;68.38;101013.06;5013754;28;20120;-67
2023/08/13 08:14:14;;;;;;;4.90;1.00;;;;;;;25.56;66.64;101014.47;5027340;28;20200;-68
2023/08/13 08:16:40;;;;;;;0.55;0.40;;;;;;;25.59;67.08;101022.63;5039766;28;22113;-67
2023/08/13 08:19:05;;;;;;;3.53;0.70;;;;;;;25.80;68.03;101023.88;5011194;28;20044;-67
2023/08/13 08:21:31;;;;;;;0.60;0.57;;;;;;;25.78;65.76;101020.78;5031760;28;20063;-67
2023/08/13 08:23:57;;;;;;;0.77;0.40;;;;;;;25.82;66.65;101024.19;5016507;28;20148;-67
2023/08/13 08:26:23;;;;;;;1.08;0.73;;;;;;;25.90;64.61;101017.94;5036657;28;20025;-66
2023/08/13 08:28:48;;;;;;;1.23;0.70;;;;;;;25.57;65.21;101021.56;5049194;28;20040;-66
2023/08/13 08:31:14;;;;;;;1.92;0.40;;;;;;;25.71;65.22;101021.81;5046563;28;20107;-67
2023/08/13 08:33:39;;;;;;;1.48;0.70;;;;;;;25.82;63.73;101016.66;5043077;28;20032;-68
2023/08/13 08:36:05;;;;;;;1.48;0.30;;;;;;;25.96;63.20;101028.44;5031912;28;20477;-66
2023/08/13 08:38:31;;;;;;;1.73;0.40;;;;;;;25.98;63.21;101018.44;5040653;28;20045;-66
2023/08/13 08:40:59;;;;;;;1.48;0.65;;;;;;;26.16;61.66;101024.13;5035701;28;20048;-67
2023/08/13 08:43:29;;;;;;;0.88;0.40;;;;;;;26.33;61.01;101027.41;5045487;28;20045;-67
2023/08/13 08:46:02;;;;;;;0.70;0.40;;;;;;;26.47;61.34;101018.56;5044211;28;20426;-67
2023/08/13 08:48:29;;;;;;;0.73;0.40;;;;;;;26.26;63.83;101022.16;5043650;28;20029;-68
2023/08/13 08:50:56;;;;;;;1.30;0.40;;;;;;;26.48;62.22;101023.66;5030722;28;20370;-67
2023/08/13 08:53:22;;;;;;;1.15;0.52;;;;;;;26.79;61.15;101026.38;5031618;28;20177;-67
2023/08/13 08:56:10;;;;;;;0.95;0.30;;;;;;;26.66;59.20;101018.19;5037776;28;20072;-66
2023/08/13 08:58:36;;;;;;;5.35;0.40;;;;;;;26.15;60.65;101010.75;4968244;28;20050;-67
2023/08/13 09:01:01;;;;;;;1.20;0.28;;;;;;;26.29;60.74;101022.03;4970119;28;20041;-67
2023/08/13 09:03:27;;;;;;;2.03;0.50;;;;;;;26.64;59.45;101028.94;4951664;28;20089;-67
2023/08/13 09:05:54;;;;;;;1.17;0.40;;;;;;;26.72;61.04;101033.00;4973536;28;20050;-66
2023/08/13 09:08:19;;;;;;;1.77;0.95;;;;;;;26.72;57.79;101033.00;4969612;28;20054;-67
2023/08/13 09:10:45;;;;;;;1.83;0.40;;;;;;;26.93;59.39;101025.81;4964906;28;20047;-66
2023/08/13 09:13:13;;;;;;;0.77;0.40;;;;;;;26.94;57.34;101018.28;4968977;28;20034;-66
2023/08/13 09:15:44;;;;;;;1.23;0.43;;;;;;;26.87;58.15;101008.28;4957277;28;20035;-67
2023/08/13 09:18:10;;;;;;;0.73;0.30;;;;;;;27.22;57.53;101012.34;4967430;28;20031;-66
2023/08/13 09:20:43;;;;;;;1.50;0.47;;;;;;;27.29;56.43;101000.19;4969367;28;20049;-67
2023/08/13 09:23:08;;;;;;;1.05;0.32;;;;;;;27.63;56.69;101019.28;4932460;29;20203;-67
2023/08/13 09:25:34;;;;;;;0.30;0.30;;;;;;;27.91;56.09;101026.34;4964531;28;20102;-66
2023/08/13 09:28:01;;;;;;;3.22;0.35;;;;;;;28.27;53.99;101009.63;4966725;28;20042;-67
2023/08/13 09:30:30;;;;;;;2.05;0.40;;;;;;;28.44;51.81;101015.56;4966459;28;20043;-66
2023/08/13 09:32:59;;;;;;;1.65;0.50;;;;;;;28.12;51.84;101006.00;4976295;28;20030;-67
2023/08/13 09:35:26;;;;;;;0.73;0.38;;;;;;;28.32;51.88;101013.78;5004924;28;20080;-67
2023/08/13 09:37:52;;;;;;;2.55;0.40;;;;;;;28.60;51.91;101006.88;5039417;28;20413;-66
2023/08/13 09:40:18;;;;;;;0.75;0.40;;;;;;;28.62;51.47;101011.97;5022820;28;20393;-66
2023/08/13 09:42:46;;;;;;;0.52;0.52;;;;;;;28.31;49.75;101007.47;5044928;22;20214;-63
2023/08/13 09:45:15;;;;;;;0.75;0.30;;;;;;;28.30;51.40;101011.44;5028579;28;20115;-60
2023/08/13 09:47:44;;;;;;;0.20;0.20;;;;;;;28.43;51.59;100991.84;5029495;28;20024;-62
2023/08/13 09:50:12;;;;;;;2.13;0.40;;;;;;;28.85;51.21;101005.66;5039661;28;20057;-62
2023/08/13 09:52:43;;;;;;;3.58;0.43;;;;;;;29.06;50.50;101002.59;5007961;28;20049;-62
2023/08/13 09:55:12;;;;;;;0.50;0.30;;;;;;;29.06;48.80;101002.59;5001180;28;20094;-63
2023/08/13 09:57:40;;;;;;;0.57;0.32;;;;;;;29.07;50.68;101004.13;5016729;28;20148;-63
2023/08/13 10:00:11;;;;;;;0.90;0.30;;;;;;;29.24;50.92;101008.06;4995007;28;20032;-63
2023/08/13 10:02:42;;;;;;;6.25;0.30;;;;;;;29.14;50.42;101011.34;5013271;28;20034;-64
2023/08/13 10:05:09;;;;;;;1.33;0.45;;;;;;;29.26;49.16;101004.78;5020409;28;20124;-63
2023/08/13 10:07:36;;;;;;;0.70;0.30;;;;;;;29.32;50.37;101005.66;5021537;28;20100;-62
2023/08/13 10:10:03;;;;;;;2.72;0.30;;;;;;;29.56;49.53;101014.69;5019093;28;20965;-62
2023/08/13 10:12:30;;;;;;;1.20;0.30;;;;;;;29.63;50.22;101011.56;5012712;28;20041;-61
2023/08/13 10:14:56;;;;;;;3.20;0.50;;;;;;;29.74;48.89;101011.03;5015713;28;20025;-63
2023/08/13 10:17:26;;;;;;;0.85;0.20;;;;;;;29.75;49.30;101004.97;5016633;28;20480;-63
2023/08/13 10:19:55;;;;;;;0.43;0.20;;;;;;;29.74;47.82;101005.47;5021964;28;20072;-62
2023/08/13 10:22:30;;;;;;;0.40;0.20;;;;;;;29.58;47.95;101001.09;5013021;28;20696;-62
2023/08/13 10:24:56;;;;;;;1.48;0.20;;;;;;;29.78;48.22;101006.81;5007377;28;20040;-62
2023/08/13 10:27:22;;;;;;;1.10;0.30;;;;;;;29.69;47.61;101009.66;5010642;28;20808;-63
2023/08/13 10:29:48;;;;;;;2.75;0.30;;;;;;;29.72;49.97;101000.41;5002460;28;20113;-62
2023/08/13 10:32:16;;;;;;;1.25;0.30;;;;;;;29.94;48.91;101009.13;5012018;28;20129;-62
2023/08/13 10:34:50;;;;;;;0.55;0.30;;;;;;;30.17;48.41;101004.69;5011449;28;20069;-62
2023/08/13 10:37:20;;;;;;;0.68;0.20;;;;;;;30.15;47.97;101005.19;4998579;28;20612;-62
2023/08/13 10:39:54;;;;;;;0.83;0.20;;;;;;;30.13;47.41;101004.13;5013588;28;20058;-62
2023/08/13 10:42:26;;;;;;;1.95;0.20;;;;;;;30.39;47.19;101013.41;5011659;28;20408;-63
2023/08/13 10:45:06;;;;;;;0.28;0.20;;;;;;;30.56;46.84;100991.41;5011807;28;20110;-63
2023/08/13 10:47:47;;;;;;;0.28;0.20;;;;;;;30.82;46.73;101008.97;5024004;28;20061;-62
2023/08/13 10:50:16;;;;;;;0.20;0.20;;;;;;;30.87;46.36;101002.75;5005720;28;20407;-63
2023/08/13 10:52:41;;;;;;;1.25;0.15;;;;;;;30.80;47.76;101012.22;5012031;28;20542;-63
2023/08/13 10:55:09;;;;;;;0.70;0.08;;;;;;;30.94;47.39;101011.44;5011159;28;20029;-62
2023/08/13 10:57:35;;;;;;;0.35;0.20;;;;;;;30.74;46.29;101008.59;5018942;28;20038;-62
2023/08/13 11:00:03;;;;;;;0.40;0.20;;;;;;;30.49;47.34;101019.63;5010572;28;20030;-63
2023/08/13 11:02:30;;;;;;;0.30;0.20;;;;;;;30.08;48.07;101013.16;4992472;28;20130;-62
2023/08/13 11:04:56;;;;;;;0.43;0.20;;;;;;;29.91;48.26;101009.28;5009373;28;20485;-62
2023/08/13 11:07:23;;;;;;;2.45;0.40;;;;;;;29.19;50.25;101005.91;5021801;28;20124;-61
2023/08/13 11:09:49;;;;;;;0.70;0.30;;;;;;;29.12;50.52;101002.69;5011856;28;20104;-63
2023/08/13 11:12:15;;;;;;;1.15;0.20;;;;;;;29.01;50.79;101000.47;5022479;28;20056;-59
2023/08/13 11:14:44;;;;;;;2.15;0.10;;;;;;;29.27;49.05;101007.09;5016641;28;20029;-62
2023/08/13 11:17:09;;;;;;;0.93;0.32;;;;;;;29.15;50.27;101005.31;5018921;28;20484;-62
2023/08/13 11:19:35;;;;;;;0.55;0.20;;;;;;;29.07;50.12;101003.38;5011590;28;20025;-62
2023/08/13 11:22:01;;;;;;;0.40;0.17;;;;;;;28.98;50.03;100995.88;5006865;28;20041;-62